sensor_id;sensor_type;location;lat;lon;timestamp;pressure;altitude;pressure_sealevel;temperature;humidity
47430;BME280;33181;49.246;7.372;2022-08-21T00:00:20;98963.53;;;18.05;66.61
47430;BME280;33181;49.246;7.372;2022-08-21T00:02:54;98949.75;;;18.10;66.58
47430;BME280;33181;49.246;7.372;2022-08-21T00:05:22;98954.56;;;18.14;66.40
47430;BME280;33181;49.246;7.372;2022-08-21T00:07:48;98948.41;;;18.14;66.42
47430;BME280;33181;49.246;7.372;2022-08-21T00:10:15;98952.09;;;18.13;66.48
47430;BME280;33181;49.246;7.372;2022-08-21T00:12:42;98949.75;;;18.10;66.39
47430;BME280;33181;49.246;7.372;2022-08-21T00:15:10;98954.72;;;18.04;66.82
47430;BME280;33181;49.246;7.372;2022-08-21T00:17:36;98949.75;;;18.01;66.77
47430;BME280;33181;49.246;7.372;2022-08-21T00:20:06;98946.94;;;17.95;66.91
47430;BME280;33181;49.246;7.372;2022-08-21T00:22:35;98944.59;;;17.92;66.87
47430;BME280;33181;49.246;7.372;2022-08-21T00:25:03;98940.09;;;17.92;66.82
47430;BME280;33181;49.246;7.372;2022-08-21T00:27:30;98941.25;;;17.90;66.87
47430;BME280;33181;49.246;7.372;2022-08-21T00:29:56;98938.59;;;17.90;66.88
47430;BME280;33181;49.246;7.372;2022-08-21T00:32:25;98937.09;;;17.87;66.62
47430;BME280;33181;49.246;7.372;2022-08-21T00:34:51;98939.28;;;17.83;66.90
47430;BME280;33181;49.246;7.372;2022-08-21T00:37:17;98937.13;;;17.79;67.12
47430;BME280;33181;49.246;7.372;2022-08-21T00:39:43;98936.59;;;17.75;67.12
47430;BME280;33181;49.246;7.372;2022-08-21T00:42:10;98937.06;;;17.71;66.94
47430;BME280;33181;49.246;7.372;2022-08-21T00:44:42;98939.06;;;17.69;67.14
47430;BME280;33181;49.246;7.372;2022-08-21T00:47:09;98942.06;;;17.66;67.00
47430;BME280;33181;49.246;7.372;2022-08-21T00:49:36;98940.34;;;17.40;67.48
47430;BME280;33181;49.246;7.372;2022-08-21T00:52:04;98939.16;;;17.26;68.04
47430;BME280;33181;49.246;7.372;2022-08-21T00:54:31;98943.09;;;17.14;68.52
47430;BME280;33181;49.246;7.372;2022-08-21T00:57:05;98935.94;;;17.06;68.75
47430;BME280;33181;49.246;7.372;2022-08-21T00:59:35;98942.22;;;17.05;68.84
47430;BME280;33181;49.246;7.372;2022-08-21T01:02:05;98944.53;;;17.00;69.21
47430;BME280;33181;49.246;7.372;2022-08-21T01:04:33;98941.91;;;17.00;69.02
47430;BME280;33181;49.246;7.372;2022-08-21T01:06:58;98940.69;;;16.95;69.20
47430;BME280;33181;49.246;7.372;2022-08-21T01:09:24;98946.19;;;16.93;69.25
47430;BME280;33181;49.246;7.372;2022-08-21T01:11:50;98939.25;;;17.00;69.00
47430;BME280;33181;49.246;7.372;2022-08-21T01:14:16;98942.06;;;17.07;68.67
47430;BME280;33181;49.246;7.372;2022-08-21T01:16:48;98938.09;;;17.03;68.68
47430;BME280;33181;49.246;7.372;2022-08-21T01:19:16;98939.88;;;17.02;68.68
47430;BME280;33181;49.246;7.372;2022-08-21T01:21:43;98938.41;;;17.08;68.32
47430;BME280;33181;49.246;7.372;2022-08-21T01:24:09;98934.94;;;17.07;68.34
47430;BME280;33181;49.246;7.372;2022-08-21T01:26:36;98932.28;;;17.07;68.11
47430;BME280;33181;49.246;7.372;2022-08-21T01:29:12;98943.91;;;17.06;68.16
47430;BME280;33181;49.246;7.372;2022-08-21T01:31:39;98943.53;;;17.01;68.12
47430;BME280;33181;49.246;7.372;2022-08-21T01:34:06;98946.66;;;16.88;68.73
47430;BME280;33181;49.246;7.372;2022-08-21T01:36:33;98952.44;;;16.84;68.88
47430;BME280;33181;49.246;7.372;2022-08-21T01:38:59;98945.25;;;16.76;69.15
47430;BME280;33181;49.246;7.372;2022-08-21T01:41:25;98948.28;;;16.81;69.05
47430;BME280;33181;49.246;7.372;2022-08-21T01:43:51;98941.81;;;16.84;68.73
47430;BME280;33181;49.246;7.372;2022-08-21T01:46:17;98944.03;;;16.71;69.12
47430;BME280;33181;49.246;7.372;2022-08-21T01:48:43;98945.97;;;16.60;69.43
47430;BME280;33181;49.246;7.372;2022-08-21T01:51:09;98943.91;;;16.46;70.26
47430;BME280;33181;49.246;7.372;2022-08-21T01:53:36;98943.97;;;16.28;70.90
47430;BME280;33181;49.246;7.372;2022-08-21T01:56:05;98946.81;;;16.35;70.78
47430;BME280;33181;49.246;7.372;2022-08-21T01:58:31;98944.53;;;16.40;70.60
47430;BME280;33181;49.246;7.372;2022-08-21T02:00:58;98941.28;;;16.46;70.21
47430;BME280;33181;49.246;7.372;2022-08-21T02:03:24;98944.53;;;16.40;70.35
47430;BME280;33181;49.246;7.372;2022-08-21T02:05:49;98938.19;;;16.33;70.41
47430;BME280;33181;49.246;7.372;2022-08-21T02:08:15;98942.03;;;16.38;70.44
47430;BME280;33181;49.246;7.372;2022-08-21T02:10:41;98937.22;;;16.34;70.56
47430;BME280;33181;49.246;7.372;2022-08-21T02:13:08;98928.94;;;16.37;70.53
47430;BME280;33181;49.246;7.372;2022-08-21T02:15:34;98935.44;;;16.42;70.43
47430;BME280;33181;49.246;7.372;2022-08-21T02:18:02;98925.16;;;16.39;70.24
47430;BME280;33181;49.246;7.372;2022-08-21T02:20:37;98927.56;;;16.33;70.33
47430;BME280;33181;49.246;7.372;2022-08-21T02:23:06;98927.38;;;16.26;70.69
47430;BME280;33181;49.246;7.372;2022-08-21T02:25:33;98922.16;;;16.16;70.82
47430;BME280;33181;49.246;7.372;2022-08-21T02:28:03;98927.47;;;16.16;70.98
47430;BME280;33181;49.246;7.372;2022-08-21T02:30:33;98926.63;;;16.16;70.79
47430;BME280;33181;49.246;7.372;2022-08-21T02:33:00;98927.47;;;16.16;70.86
47430;BME280;33181;49.246;7.372;2022-08-21T02:35:27;98921.44;;;16.06;71.18
47430;BME280;33181;49.246;7.372;2022-08-21T02:37:57;98923.72;;;16.01;71.45
47430;BME280;33181;49.246;7.372;2022-08-21T02:40:28;98917.44;;;16.02;71.30
47430;BME280;33181;49.246;7.372;2022-08-21T02:42:54;98924.91;;;16.07;71.07
47430;BME280;33181;49.246;7.372;2022-08-21T02:45:20;98920.44;;;16.07;70.74
47430;BME280;33181;49.246;7.372;2022-08-21T02:47:55;98926.75;;;16.06;71.15
47430;BME280;33181;49.246;7.372;2022-08-21T02:50:28;98931.72;;;16.09;70.88
47430;BME280;33181;49.246;7.372;2022-08-21T02:52:55;98921.97;;;16.10;70.79
47430;BME280;33181;49.246;7.372;2022-08-21T02:55:24;98922.28;;;16.07;70.73
47430;BME280;33181;49.246;7.372;2022-08-21T02:57:51;98927.13;;;15.93;70.83
47430;BME280;33181;49.246;7.372;2022-08-21T03:00:18;98925.09;;;15.87;71.15
47430;BME280;33181;49.246;7.372;2022-08-21T03:02:46;98924.50;;;15.75;71.63
47430;BME280;33181;49.246;7.372;2022-08-21T03:05:13;98918.97;;;15.51;72.56
47430;BME280;33181;49.246;7.372;2022-08-21T03:07:42;98912.59;;;15.44;72.74
47430;BME280;33181;49.246;7.372;2022-08-21T03:10:09;98917.53;;;15.39;73.02
47430;BME280;33181;49.246;7.372;2022-08-21T03:12:35;98915.16;;;15.18;74.02
47430;BME280;33181;49.246;7.372;2022-08-21T03:15:09;98914.50;;;15.06;74.36
47430;BME280;33181;49.246;7.372;2022-08-21T03:17:36;98914.97;;;15.01;75.00
47430;BME280;33181;49.246;7.372;2022-08-21T03:20:03;98915.94;;;15.00;74.86
47430;BME280;33181;49.246;7.372;2022-08-21T03:22:29;98913.59;;;14.97;75.16
47430;BME280;33181;49.246;7.372;2022-08-21T03:24:55;98908.50;;;14.86;75.38
47430;BME280;33181;49.246;7.372;2022-08-21T03:27:23;98907.28;;;14.80;75.65
47430;BME280;33181;49.246;7.372;2022-08-21T03:29:52;98907.97;;;14.82;75.33
47430;BME280;33181;49.246;7.372;2022-08-21T03:32:19;98911.56;;;14.81;75.35
47430;BME280;33181;49.246;7.372;2022-08-21T03:34:45;98910.31;;;14.86;75.43
47430;BME280;33181;49.246;7.372;2022-08-21T03:37:13;98905.16;;;14.84;75.33
47430;BME280;33181;49.246;7.372;2022-08-21T03:39:39;98913.16;;;14.74;75.92
47430;BME280;33181;49.246;7.372;2022-08-21T03:42:07;98906.75;;;14.77;75.57
47430;BME280;33181;49.246;7.372;2022-08-21T03:44:33;98908.34;;;14.88;75.43
47430;BME280;33181;49.246;7.372;2022-08-21T03:47:01;98910.94;;;14.97;74.78
47430;BME280;33181;49.246;7.372;2022-08-21T03:49:27;98907.88;;;15.02;74.44
47430;BME280;33181;49.246;7.372;2022-08-21T03:51:53;98916.78;;;15.01;74.27
47430;BME280;33181;49.246;7.372;2022-08-21T03:54:19;98910.50;;;15.02;74.19
47430;BME280;33181;49.246;7.372;2022-08-21T03:56:45;98904.75;;;15.06;73.94
47430;BME280;33181;49.246;7.372;2022-08-21T03:59:11;98911.22;;;15.04;73.67
47430;BME280;33181;49.246;7.372;2022-08-21T04:01:37;98911.50;;;15.01;73.96
47430;BME280;33181;49.246;7.372;2022-08-21T04:04:05;98908.97;;;14.99;73.96
47430;BME280;33181;49.246;7.372;2022-08-21T04:06:31;98907.09;;;14.92;73.85
47430;BME280;33181;49.246;7.372;2022-08-21T04:08:57;98910.41;;;14.94;73.76
47430;BME280;33181;49.246;7.372;2022-08-21T04:11:23;98918.56;;;15.00;73.62
47430;BME280;33181;49.246;7.372;2022-08-21T04:13:49;98922.63;;;15.04;73.46
47430;BME280;33181;49.246;7.372;2022-08-21T04:16:15;98923.56;;;15.03;73.10
47430;BME280;33181;49.246;7.372;2022-08-21T04:18:41;98922.44;;;14.88;73.67
47430;BME280;33181;49.246;7.372;2022-08-21T04:21:09;98923.97;;;14.81;73.81
47430;BME280;33181;49.246;7.372;2022-08-21T04:23:37;98926.47;;;14.82;73.65
47430;BME280;33181;49.246;7.372;2022-08-21T04:26:02;98931.19;;;14.89;73.75
47430;BME280;33181;49.246;7.372;2022-08-21T04:28:28;98934.22;;;14.94;73.48
47430;BME280;33181;49.246;7.372;2022-08-21T04:30:55;98932.25;;;14.96;73.38
47430;BME280;33181;49.246;7.372;2022-08-21T04:33:22;98943.84;;;14.95;73.28
47430;BME280;33181;49.246;7.372;2022-08-21T04:35:49;98941.47;;;14.92;73.28
47430;BME280;33181;49.246;7.372;2022-08-21T04:38:16;98943.00;;;14.94;73.29
47430;BME280;33181;49.246;7.372;2022-08-21T04:40:42;98940.91;;;14.98;73.12
47430;BME280;33181;49.246;7.372;2022-08-21T04:43:09;98945.03;;;15.00;73.04
47430;BME280;33181;49.246;7.372;2022-08-21T04:45:41;98949.91;;;15.05;72.78
47430;BME280;33181;49.246;7.372;2022-08-21T04:48:10;98950.72;;;15.05;72.80
47430;BME280;33181;49.246;7.372;2022-08-21T04:50:50;98951.97;;;15.11;72.56
47430;BME280;33181;49.246;7.372;2022-08-21T04:56:19;98950.09;;;15.21;72.09
47430;BME280;33181;49.246;7.372;2022-08-21T04:58:46;98953.72;;;15.20;72.50
47430;BME280;33181;49.246;7.372;2022-08-21T05:01:19;98949.88;;;15.33;72.78
47430;BME280;33181;49.246;7.372;2022-08-21T05:03:48;98950.50;;;15.62;71.83
47430;BME280;33181;49.246;7.372;2022-08-21T05:06:16;98954.25;;;15.87;69.93
47430;BME280;33181;49.246;7.372;2022-08-21T05:08:44;98958.16;;;16.01;69.18
47430;BME280;33181;49.246;7.372;2022-08-21T05:11:11;98953.47;;;16.39;68.74
47430;BME280;33181;49.246;7.372;2022-08-21T05:13:37;98953.91;;;16.78;66.82
47430;BME280;33181;49.246;7.372;2022-08-21T05:16:03;98946.28;;;17.26;65.48
47430;BME280;33181;49.246;7.372;2022-08-21T05:18:29;98941.91;;;18.00;63.60
47430;BME280;33181;49.246;7.372;2022-08-21T05:20:54;98951.63;;;18.89;61.46
47430;BME280;33181;49.246;7.372;2022-08-21T05:23:21;98952.03;;;19.63;59.57
47430;BME280;33181;49.246;7.372;2022-08-21T05:25:46;98955.72;;;20.31;57.33
47430;BME280;33181;49.246;7.372;2022-08-21T05:28:12;98949.50;;;20.83;56.00
47430;BME280;33181;49.246;7.372;2022-08-21T05:30:39;98949.13;;;21.16;55.01
47430;BME280;33181;49.246;7.372;2022-08-21T05:33:05;98950.28;;;21.43;54.46
47430;BME280;33181;49.246;7.372;2022-08-21T05:35:32;98957.72;;;21.63;53.55
47430;BME280;33181;49.246;7.372;2022-08-21T05:37:59;98949.16;;;21.74;53.41
47430;BME280;33181;49.246;7.372;2022-08-21T05:40:26;98957.69;;;21.84;52.71
47430;BME280;33181;49.246;7.372;2022-08-21T05:42:53;98962.56;;;21.95;52.50
47430;BME280;33181;49.246;7.372;2022-08-21T05:45:20;98962.66;;;22.09;52.18
47430;BME280;33181;49.246;7.372;2022-08-21T05:47:46;98958.28;;;22.23;51.82
47430;BME280;33181;49.246;7.372;2022-08-21T05:50:12;98962.03;;;22.28;51.09
47430;BME280;33181;49.246;7.372;2022-08-21T05:52:38;98952.94;;;22.23;50.94
47430;BME280;33181;49.246;7.372;2022-08-21T05:55:04;98956.06;;;22.26;51.25
47430;BME280;33181;49.246;7.372;2022-08-21T05:57:30;98959.75;;;22.04;51.22
47430;BME280;33181;49.246;7.372;2022-08-21T05:59:56;98961.44;;;21.68;51.97
47430;BME280;33181;49.246;7.372;2022-08-21T06:02:22;98969.69;;;21.67;52.52
47430;BME280;33181;49.246;7.372;2022-08-21T06:04:48;98971.38;;;21.74;52.28
47430;BME280;33181;49.246;7.372;2022-08-21T06:07:14;98966.75;;;21.83;52.18
47430;BME280;33181;49.246;7.372;2022-08-21T06:09:41;98965.88;;;21.76;52.58
47430;BME280;33181;49.246;7.372;2022-08-21T06:12:10;98968.22;;;21.86;52.15
47430;BME280;33181;49.246;7.372;2022-08-21T06:14:37;98966.31;;;22.01;51.59
47430;BME280;33181;49.246;7.372;2022-08-21T06:17:07;98964.97;;;21.90;51.97
47430;BME280;33181;49.246;7.372;2022-08-21T06:19:34;98961.34;;;21.98;51.82
47430;BME280;33181;49.246;7.372;2022-08-21T06:22:01;98957.22;;;22.17;51.73
47430;BME280;33181;49.246;7.372;2022-08-21T06:24:27;98960.41;;;22.12;51.60
47430;BME280;33181;49.246;7.372;2022-08-21T06:26:53;98955.81;;;22.21;51.39
47430;BME280;33181;49.246;7.372;2022-08-21T06:29:19;98953.94;;;22.21;51.50
47430;BME280;33181;49.246;7.372;2022-08-21T06:31:47;98948.28;;;21.67;52.41
47430;BME280;33181;49.246;7.372;2022-08-21T06:34:14;98946.06;;;21.92;52.65
47430;BME280;33181;49.246;7.372;2022-08-21T06:36:40;98941.50;;;22.35;51.76
47430;BME280;33181;49.246;7.372;2022-08-21T06:39:06;98940.84;;;22.61;50.92
47430;BME280;33181;49.246;7.372;2022-08-21T06:41:32;98939.13;;;22.88;50.50
47430;BME280;33181;49.246;7.372;2022-08-21T06:43:58;98940.50;;;23.06;50.27
47430;BME280;33181;49.246;7.372;2022-08-21T06:46:27;98942.25;;;23.33;49.86
47430;BME280;33181;49.246;7.372;2022-08-21T06:48:54;98936.56;;;23.63;49.17
47430;BME280;33181;49.246;7.372;2022-08-21T06:51:20;98937.25;;;23.98;47.90
47430;BME280;33181;49.246;7.372;2022-08-21T06:53:46;98941.81;;;24.24;47.36
47430;BME280;33181;49.246;7.372;2022-08-21T06:56:12;98945.50;;;24.57;46.99
47430;BME280;33181;49.246;7.372;2022-08-21T06:58:38;98943.13;;;24.93;46.79
47430;BME280;33181;49.246;7.372;2022-08-21T07:01:06;98943.31;;;24.98;46.21
47430;BME280;33181;49.246;7.372;2022-08-21T07:03:36;98942.66;;;25.23;45.89
47430;BME280;33181;49.246;7.372;2022-08-21T07:06:06;98942.97;;;25.40;44.83
47430;BME280;33181;49.246;7.372;2022-08-21T07:08:32;98944.84;;;25.39;44.99
47430;BME280;33181;49.246;7.372;2022-08-21T07:11:00;98937.38;;;25.41;44.90
47430;BME280;33181;49.246;7.372;2022-08-21T07:13:27;98936.41;;;25.67;44.75
47430;BME280;33181;49.246;7.372;2022-08-21T07:15:53;98934.84;;;25.85;44.18
47430;BME280;33181;49.246;7.372;2022-08-21T07:18:19;98930.78;;;26.01;43.83
47430;BME280;33181;49.246;7.372;2022-08-21T07:20:46;98933.94;;;26.23;43.67
47430;BME280;33181;49.246;7.372;2022-08-21T07:23:33;98937.03;;;26.51;43.15
47430;BME280;33181;49.246;7.372;2022-08-21T07:26:00;98928.59;;;26.85;42.69
47430;BME280;33181;49.246;7.372;2022-08-21T07:28:27;98932.34;;;27.02;42.39
47430;BME280;33181;49.246;7.372;2022-08-21T07:30:56;98932.47;;;27.25;41.95
47430;BME280;33181;49.246;7.372;2022-08-21T07:33:24;98925.91;;;27.21;42.17
47430;BME280;33181;49.246;7.372;2022-08-21T07:35:50;98928.13;;;26.88;42.43
47430;BME280;33181;49.246;7.372;2022-08-21T07:38:16;98935.72;;;27.16;42.46
47430;BME280;33181;49.246;7.372;2022-08-21T07:40:42;98925.88;;;27.52;41.98
47430;BME280;33181;49.246;7.372;2022-08-21T07:43:07;98924.63;;;27.84;41.13
47430;BME280;33181;49.246;7.372;2022-08-21T07:45:33;98928.41;;;28.07;40.63
47430;BME280;33181;49.246;7.372;2022-08-21T07:47:59;98924.75;;;28.25;40.53
47430;BME280;33181;49.246;7.372;2022-08-21T07:50:25;98930.06;;;28.19;40.92
47430;BME280;33181;49.246;7.372;2022-08-21T07:52:52;98926.34;;;27.79;41.29
47430;BME280;33181;49.246;7.372;2022-08-21T07:55:20;98930.16;;;28.01;41.12
47430;BME280;33181;49.246;7.372;2022-08-21T07:57:47;98920.22;;;28.25;40.65
47430;BME280;33181;49.246;7.372;2022-08-21T08:00:20;98922.31;;;28.47;40.14
47430;BME280;33181;49.246;7.372;2022-08-21T08:02:49;98915.63;;;28.73;39.79
47430;BME280;33181;49.246;7.372;2022-08-21T08:05:19;98913.75;;;28.73;39.65
47430;BME280;33181;49.246;7.372;2022-08-21T08:07:45;98917.13;;;28.69;40.29
47430;BME280;33181;49.246;7.372;2022-08-21T08:10:11;98916.56;;;28.67;39.88
47430;BME280;33181;49.246;7.372;2022-08-21T08:12:40;98909.25;;;28.79;40.13
47430;BME280;33181;49.246;7.372;2022-08-21T08:15:12;98906.28;;;28.92;39.61
47430;BME280;33181;49.246;7.372;2022-08-21T08:17:38;98901.22;;;28.96;39.82
47430;BME280;33181;49.246;7.372;2022-08-21T08:20:08;98890.75;;;28.87;39.96
47430;BME280;33181;49.246;7.372;2022-08-21T08:22:37;98887.97;;;28.82;40.17
47430;BME280;33181;49.246;7.372;2022-08-21T08:25:04;98891.00;;;28.86;39.75
47430;BME280;33181;49.246;7.372;2022-08-21T08:27:31;98892.38;;;29.00;39.44
47430;BME280;33181;49.246;7.372;2022-08-21T08:29:57;98888.25;;;29.09;39.94
47430;BME280;33181;49.246;7.372;2022-08-21T08:32:23;98886.66;;;29.25;39.55
47430;BME280;33181;49.246;7.372;2022-08-21T08:34:50;98883.09;;;29.65;39.00
47430;BME280;33181;49.246;7.372;2022-08-21T08:37:19;98877.19;;;29.85;38.61
47430;BME280;33181;49.246;7.372;2022-08-21T08:39:45;98885.88;;;29.87;39.17
47430;BME280;33181;49.246;7.372;2022-08-21T08:42:24;98879.78;;;30.14;38.19
47430;BME280;33181;49.246;7.372;2022-08-21T08:44:59;98883.44;;;29.57;39.26
47430;BME280;33181;49.246;7.372;2022-08-21T08:47:27;98876.13;;;29.86;38.72
47430;BME280;33181;49.246;7.372;2022-08-21T08:50:08;98883.34;;;30.14;37.61
47430;BME280;33181;49.246;7.372;2022-08-21T08:52:43;98878.25;;;30.35;37.21
47430;BME280;33181;49.246;7.372;2022-08-21T08:55:42;98871.25;;;30.78;37.20
47430;BME280;33181;49.246;7.372;2022-08-21T08:58:27;98883.00;;;30.83;36.42
47430;BME280;33181;49.246;7.372;2022-08-21T09:00:57;98882.22;;;30.88;36.53
47430;BME280;33181;49.246;7.372;2022-08-21T09:03:25;98889.22;;;31.06;36.51
47430;BME280;33181;49.246;7.372;2022-08-21T09:08:41;98880.38;;;31.15;35.41
47430;BME280;33181;49.246;7.372;2022-08-21T09:11:27;98880.72;;;31.24;34.84
47430;BME280;33181;49.246;7.372;2022-08-21T09:14:25;98886.25;;;31.07;35.25
47430;BME280;33181;49.246;7.372;2022-08-21T09:17:32;98884.00;;;31.26;34.60
47430;BME280;33181;49.246;7.372;2022-08-21T09:25:32;98880.59;;;30.70;33.91
47430;BME280;33181;49.246;7.372;2022-08-21T09:28:00;98869.31;;;30.56;33.86
47430;BME280;33181;49.246;7.372;2022-08-21T09:30:31;98877.06;;;30.47;34.09
47430;BME280;33181;49.246;7.372;2022-08-21T09:32:58;98870.91;;;30.52;34.23
47430;BME280;33181;49.246;7.372;2022-08-21T09:35:24;98866.00;;;30.71;34.24
47430;BME280;33181;49.246;7.372;2022-08-21T09:40:40;98859.16;;;31.12;33.25
47430;BME280;33181;49.246;7.372;2022-08-21T09:45:41;98861.88;;;31.12;33.04
47430;BME280;33181;49.246;7.372;2022-08-21T09:48:13;98852.91;;;31.34;32.80
47430;BME280;33181;49.246;7.372;2022-08-21T09:50:40;98850.91;;;31.29;33.50
47430;BME280;33181;49.246;7.372;2022-08-21T09:53:23;98850.25;;;31.17;33.14
47430;BME280;33181;49.246;7.372;2022-08-21T09:55:56;98844.69;;;30.80;32.87
47430;BME280;33181;49.246;7.372;2022-08-21T09:58:44;98847.84;;;30.93;32.87
47430;BME280;33181;49.246;7.372;2022-08-21T10:01:24;98851.50;;;31.31;31.97
47430;BME280;33181;49.246;7.372;2022-08-21T10:04:09;98840.44;;;31.70;31.34
47430;BME280;33181;49.246;7.372;2022-08-21T10:06:36;98843.13;;;31.65;31.13
47430;BME280;33181;49.246;7.372;2022-08-21T10:09:15;98833.34;;;31.64;31.37
47430;BME280;33181;49.246;7.372;2022-08-21T10:15:36;98836.47;;;30.75;31.24
47430;BME280;33181;49.246;7.372;2022-08-21T10:21:01;98835.72;;;31.28;30.33
47430;BME280;33181;49.246;7.372;2022-08-21T10:23:54;98831.63;;;31.53;30.12
47430;BME280;33181;49.246;7.372;2022-08-21T10:32:24;98823.84;;;31.99;29.20
47430;BME280;33181;49.246;7.372;2022-08-21T10:41:02;98819.59;;;31.44;29.82
47430;BME280;33181;49.246;7.372;2022-08-21T10:47:08;98815.19;;;30.83;30.88
47430;BME280;33181;49.246;7.372;2022-08-21T10:52:36;98807.59;;;31.39;30.30
47430;BME280;33181;49.246;7.372;2022-08-21T10:55:26;98804.38;;;31.80;30.13
47430;BME280;33181;49.246;7.372;2022-08-21T10:58:09;98804.56;;;31.68;30.01
47430;BME280;33181;49.246;7.372;2022-08-21T11:01:07;98806.56;;;31.46;29.30
47430;BME280;33181;49.246;7.372;2022-08-21T11:03:43;98801.53;;;31.59;29.81
47430;BME280;33181;49.246;7.372;2022-08-21T11:06:23;98804.63;;;32.11;29.89
47430;BME280;33181;49.246;7.372;2022-08-21T11:09:04;98800.59;;;32.23;28.92
47430;BME280;33181;49.246;7.372;2022-08-21T11:11:44;98794.50;;;32.48;28.15
47430;BME280;33181;49.246;7.372;2022-08-21T11:14:55;98791.88;;;32.84;27.86
47430;BME280;33181;49.246;7.372;2022-08-21T11:17:32;98788.38;;;32.89;28.88
47430;BME280;33181;49.246;7.372;2022-08-21T11:23:02;98789.97;;;32.85;29.19
47430;BME280;33181;49.246;7.372;2022-08-21T11:25:37;98789.44;;;32.88;28.70
47430;BME280;33181;49.246;7.372;2022-08-21T11:28:32;98788.19;;;33.11;27.85
47430;BME280;33181;49.246;7.372;2022-08-21T11:34:31;98786.91;;;31.33;29.75
47430;BME280;33181;49.246;7.372;2022-08-21T11:37:23;98780.56;;;30.52;30.57
47430;BME280;33181;49.246;7.372;2022-08-21T11:42:42;98767.41;;;30.82;30.66
47430;BME280;33181;49.246;7.372;2022-08-21T11:47:54;98764.09;;;29.75;31.77
47430;BME280;33181;49.246;7.372;2022-08-21T11:50:28;98767.41;;;30.38;31.00
47430;BME280;33181;49.246;7.372;2022-08-21T11:56:13;98771.84;;;29.38;31.79
47430;BME280;33181;49.246;7.372;2022-08-21T11:58:49;98757.41;;;30.00;31.15
47430;BME280;33181;49.246;7.372;2022-08-21T12:01:39;98759.47;;;30.32;31.03
47430;BME280;33181;49.246;7.372;2022-08-21T12:04:29;98758.16;;;30.34;30.52
47430;BME280;33181;49.246;7.372;2022-08-21T12:07:08;98758.22;;;30.39;30.55
47430;BME280;33181;49.246;7.372;2022-08-21T12:09:35;98754.50;;;30.45;30.43
47430;BME280;33181;49.246;7.372;2022-08-21T12:12:21;98749.41;;;30.76;29.94
47430;BME280;33181;49.246;7.372;2022-08-21T12:14:51;98749.28;;;30.66;29.82
47430;BME280;33181;49.246;7.372;2022-08-21T12:17:38;98752.06;;;30.71;30.23
47430;BME280;33181;49.246;7.372;2022-08-21T12:26:19;98757.63;;;31.73;28.42
47430;BME280;33181;49.246;7.372;2022-08-21T12:28:47;98751.59;;;31.66;28.13
47430;BME280;33181;49.246;7.372;2022-08-21T12:31:23;98755.41;;;31.70;28.78
47430;BME280;33181;49.246;7.372;2022-08-21T12:33:59;98743.16;;;32.04;28.40
47430;BME280;33181;49.246;7.372;2022-08-21T12:36:56;98743.84;;;31.84;27.55
47430;BME280;33181;49.246;7.372;2022-08-21T12:39:27;98744.59;;;31.10;29.27
47430;BME280;33181;49.246;7.372;2022-08-21T12:45:05;98739.06;;;31.59;28.41
47430;BME280;33181;49.246;7.372;2022-08-21T12:53:48;98733.19;;;32.25;27.71
47430;BME280;33181;49.246;7.372;2022-08-21T12:56:27;98730.72;;;32.24;27.35
47430;BME280;33181;49.246;7.372;2022-08-21T12:59:02;98724.06;;;31.52;28.65
47430;BME280;33181;49.246;7.372;2022-08-21T13:01:36;98722.38;;;31.13;28.88
47430;BME280;33181;49.246;7.372;2022-08-21T13:04:19;98722.66;;;31.44;28.99
47430;BME280;33181;49.246;7.372;2022-08-21T13:06:50;98723.00;;;31.58;28.67
47430;BME280;33181;49.246;7.372;2022-08-21T13:09:23;98725.44;;;31.54;28.18
47430;BME280;33181;49.246;7.372;2022-08-21T13:11:50;98722.38;;;31.46;28.63
47430;BME280;33181;49.246;7.372;2022-08-21T13:14:33;98722.81;;;31.70;28.40
47430;BME280;33181;49.246;7.372;2022-08-21T13:17:02;98718.84;;;31.88;27.81
47430;BME280;33181;49.246;7.372;2022-08-21T13:19:29;98701.63;;;32.19;27.72
47430;BME280;33181;49.246;7.372;2022-08-21T13:21:57;98707.00;;;32.09;28.61
47430;BME280;33181;49.246;7.372;2022-08-21T13:24:27;98706.47;;;32.07;28.06
47430;BME280;33181;49.246;7.372;2022-08-21T13:26:54;98708.13;;;32.13;28.58
47430;BME280;33181;49.246;7.372;2022-08-21T13:29:23;98704.63;;;32.28;28.74
47430;BME280;33181;49.246;7.372;2022-08-21T13:31:56;98700.44;;;32.00;28.43
47430;BME280;33181;49.246;7.372;2022-08-21T13:34:28;98703.69;;;31.97;28.57
47430;BME280;33181;49.246;7.372;2022-08-21T13:37:00;98693.13;;;31.53;29.39
47430;BME280;33181;49.246;7.372;2022-08-21T13:39:27;98688.88;;;31.72;28.99
47430;BME280;33181;49.246;7.372;2022-08-21T13:41:57;98688.22;;;31.50;29.01
47430;BME280;33181;49.246;7.372;2022-08-21T13:44:40;98680.25;;;31.06;29.50
47430;BME280;33181;49.246;7.372;2022-08-21T13:47:06;98684.00;;;30.73;29.36
47430;BME280;33181;49.246;7.372;2022-08-21T13:49:41;98677.63;;;30.35;29.49
47430;BME280;33181;49.246;7.372;2022-08-21T13:52:24;98677.06;;;30.11;29.87
47430;BME280;33181;49.246;7.372;2022-08-21T13:55:06;98673.09;;;30.18;29.85
47430;BME280;33181;49.246;7.372;2022-08-21T13:57:34;98675.00;;;30.40;29.40
47430;BME280;33181;49.246;7.372;2022-08-21T14:00:31;98673.19;;;30.51;29.43
47430;BME280;33181;49.246;7.372;2022-08-21T14:03:09;98667.06;;;30.60;29.46
47430;BME280;33181;49.246;7.372;2022-08-21T14:05:45;98669.47;;;30.57;28.97
47430;BME280;33181;49.246;7.372;2022-08-21T14:10:52;98664.56;;;29.66;29.66
47430;BME280;33181;49.246;7.372;2022-08-21T14:13:43;98665.59;;;29.26;30.92
47430;BME280;33181;49.246;7.372;2022-08-21T14:19:17;98664.38;;;29.72;30.43
47430;BME280;33181;49.246;7.372;2022-08-21T14:21:42;98663.66;;;29.77;30.35
47430;BME280;33181;49.246;7.372;2022-08-21T14:29:26;98660.25;;;29.87;30.60
47430;BME280;33181;49.246;7.372;2022-08-21T14:31:56;98657.66;;;29.97;30.79
47430;BME280;33181;49.246;7.372;2022-08-21T14:34:26;98655.53;;;29.99;29.86
47430;BME280;33181;49.246;7.372;2022-08-21T14:36:55;98649.84;;;30.00;30.15
47430;BME280;33181;49.246;7.372;2022-08-21T14:39:21;98651.22;;;29.81;30.28